createdAt,value
2018-07-21T00:00:34.488Z,14.40
2018-07-21T00:03:02.886Z,21.30
2018-07-21T00:05:31.332Z,18.57
2018-07-21T00:07:59.769Z,12.20
2018-07-21T00:10:28.203Z,12.63
2018-07-21T00:12:56.660Z,15.63
2018-07-21T00:15:25.144Z,12.17
2018-07-21T00:17:53.556Z,12.83
2018-07-21T00:20:21.982Z,15.07
2018-07-21T00:22:50.375Z,11.77
2018-07-21T00:25:18.744Z,10.23
2018-07-21T00:27:47.217Z,10.50
2018-07-21T00:30:15.627Z,9.23
2018-07-21T00:32:44.140Z,11.43
2018-07-21T00:35:12.592Z,8.20
2018-07-21T00:37:41.081Z,12.10
2018-07-21T00:40:09.685Z,14.00
2018-07-21T00:42:38.118Z,10.83
2018-07-21T00:45:06.563Z,10.47
2018-07-21T00:47:34.973Z,9.37
2018-07-21T00:50:03.428Z,9.63
2018-07-21T00:52:32.496Z,15.10
2018-07-21T00:55:00.925Z,9.13
2018-07-21T00:57:29.336Z,13.83
2018-07-21T00:59:57.730Z,19.43
2018-07-21T01:02:26.741Z,10.40
2018-07-21T01:04:55.149Z,15.47
2018-07-21T01:07:23.536Z,16.13
2018-07-21T01:09:51.982Z,12.50
2018-07-21T01:12:20.468Z,10.10
2018-07-21T01:14:48.925Z,9.83
2018-07-21T01:17:17.338Z,15.23
2018-07-21T01:19:45.801Z,10.00
2018-07-21T01:22:14.175Z,16.33
2018-07-21T01:24:42.868Z,11.90
2018-07-21T01:27:11.240Z,13.87
2018-07-21T01:29:39.636Z,12.20
2018-07-21T01:32:08.042Z,9.27
2018-07-21T01:34:36.452Z,9.90
2018-07-21T01:37:04.892Z,9.43
2018-07-21T01:39:33.384Z,11.77
2018-07-21T01:42:01.754Z,15.40
2018-07-21T01:44:30.144Z,11.63
2018-07-21T01:46:58.592Z,12.60
2018-07-21T01:49:27.008Z,9.87
2018-07-21T01:51:55.450Z,13.50
2018-07-21T01:54:23.861Z,19.20
2018-07-21T01:56:52.241Z,13.00
2018-07-21T01:59:20.660Z,10.20
2018-07-21T02:01:49.092Z,9.13
2018-07-21T02:04:17.479Z,14.10
2018-07-21T02:06:45.901Z,12.00
2018-07-21T02:09:14.304Z,8.97
2018-07-21T02:11:42.692Z,8.60
2018-07-21T02:14:11.101Z,8.57
2018-07-21T02:16:39.508Z,11.90
2018-07-21T02:19:08.014Z,14.47
2018-07-21T02:21:36.457Z,13.80
2018-07-21T02:24:04.908Z,13.87
2018-07-21T02:26:33.318Z,17.97
2018-07-21T02:29:01.712Z,13.00
2018-07-21T02:31:30.186Z,13.77
2018-07-21T02:33:58.719Z,9.20
2018-07-21T02:36:27.664Z,10.50
2018-07-21T02:38:56.121Z,12.03
2018-07-21T02:41:24.578Z,10.93
2018-07-21T02:43:52.969Z,12.37
2018-07-21T02:46:21.329Z,9.30
2018-07-21T02:48:49.795Z,11.97
2018-07-21T02:51:18.211Z,14.13
2018-07-21T02:53:46.577Z,16.00
2018-07-21T02:56:14.994Z,12.13
2018-07-21T02:58:43.411Z,16.03
2018-07-21T03:01:11.781Z,11.50
2018-07-21T03:03:40.185Z,12.63
2018-07-21T03:06:08.597Z,16.43
2018-07-21T03:08:36.995Z,13.33
2018-07-21T03:11:05.400Z,17.73
2018-07-21T03:13:33.849Z,14.50
2018-07-21T03:16:02.280Z,12.10
2018-07-21T03:18:30.648Z,11.60
2018-07-21T03:20:59.073Z,12.90
2018-07-21T03:23:27.498Z,13.53
2018-07-21T03:25:55.972Z,14.70
2018-07-21T03:28:24.381Z,13.03
2018-07-21T03:30:52.861Z,15.50
2018-07-21T03:33:21.233Z,12.63
2018-07-21T03:35:49.643Z,12.00
2018-07-21T03:38:18.067Z,15.53
2018-07-21T03:40:46.491Z,15.60
2018-07-21T03:43:14.919Z,14.40
2018-07-21T03:45:43.372Z,15.27
2018-07-21T03:48:11.731Z,16.27
2018-07-21T03:50:40.127Z,15.60
2018-07-21T03:53:08.527Z,13.60
2018-07-21T03:55:36.970Z,12.10
2018-07-21T03:58:05.424Z,11.47
2018-07-21T04:00:33.953Z,14.87
2018-07-21T04:03:02.553Z,18.37
2018-07-21T04:05:30.940Z,15.30
2018-07-21T04:07:59.290Z,9.70
2018-07-21T04:10:27.778Z,11.50
2018-07-21T04:12:56.305Z,12.37
2018-07-21T04:15:24.806Z,12.50
2018-07-21T04:17:53.239Z,14.60
2018-07-21T04:20:21.660Z,14.33
2018-07-21T04:22:50.052Z,21.53
2018-07-21T04:25:18.506Z,15.77
2018-07-21T04:27:47.473Z,19.17
2018-07-21T04:30:15.940Z,13.20
2018-07-21T04:32:44.422Z,12.93
2018-07-21T04:35:12.843Z,16.53
2018-07-21T04:37:41.311Z,14.50
2018-07-21T04:40:09.787Z,16.57
2018-07-21T04:42:38.211Z,16.93
2018-07-21T04:45:06.664Z,15.60
2018-07-21T04:47:35.059Z,15.53
2018-07-21T04:50:04.226Z,14.37
2018-07-21T04:52:33.324Z,16.03
2018-07-21T04:55:01.782Z,15.60
2018-07-21T04:57:30.307Z,13.00
2018-07-21T04:59:58.740Z,15.07
2018-07-21T05:02:27.139Z,20.27
2018-07-21T05:04:55.599Z,14.80
2018-07-21T05:07:24.020Z,17.00
2018-07-21T05:09:52.435Z,14.07
2018-07-21T05:12:20.880Z,20.43
2018-07-21T05:14:49.272Z,21.53
2018-07-21T05:17:17.779Z,18.20
2018-07-21T05:19:46.157Z,20.33
2018-07-21T05:22:14.527Z,22.57
2018-07-21T05:24:43.229Z,24.57
2018-07-21T05:27:11.688Z,23.67
2018-07-21T05:29:40.461Z,17.23
2018-07-21T05:32:08.917Z,19.17
2018-07-21T05:34:37.334Z,26.80
2018-07-21T05:37:05.727Z,16.40
2018-07-21T05:39:34.157Z,15.63
2018-07-21T05:42:02.593Z,19.53
2018-07-21T05:44:31.023Z,17.77
2018-07-21T05:46:59.449Z,19.90
2018-07-21T05:49:27.912Z,19.33
2018-07-21T05:51:56.389Z,18.87
2018-07-21T05:54:25.007Z,22.00
2018-07-21T05:56:53.422Z,17.90
2018-07-21T05:59:22.277Z,17.90
2018-07-21T06:01:50.852Z,21.30
2018-07-21T06:04:19.249Z,17.90
2018-07-21T06:06:47.724Z,15.63
2018-07-21T06:09:16.084Z,15.03
2018-07-21T06:11:45.505Z,15.13
2018-07-21T06:14:13.976Z,13.23
2018-07-21T06:16:42.490Z,19.50
2018-07-21T06:19:10.908Z,14.73
2018-07-21T06:21:39.332Z,14.80
2018-07-21T06:24:07.763Z,13.53
2018-07-21T06:26:36.581Z,21.97
2018-07-21T06:29:05.008Z,16.67
2018-07-21T06:31:33.527Z,14.20
2018-07-21T06:34:01.954Z,16.90
2018-07-21T06:36:30.513Z,16.60
2018-07-21T06:38:58.993Z,16.47
2018-07-21T06:41:27.448Z,18.70
2018-07-21T06:43:55.937Z,18.30
2018-07-21T06:46:24.390Z,15.70
2018-07-21T06:48:52.835Z,17.37
2018-07-21T06:51:21.394Z,25.20
2018-07-21T06:53:49.834Z,20.53
2018-07-21T06:56:18.258Z,20.10
2018-07-21T06:58:46.649Z,23.73
2018-07-21T07:01:15.039Z,23.00
2018-07-21T07:03:43.845Z,20.07
2018-07-21T07:06:12.314Z,29.70
2018-07-21T07:08:40.732Z,25.40
2018-07-21T07:11:09.164Z,25.77
2018-07-21T07:13:37.616Z,24.47
2018-07-21T07:16:06.283Z,24.90
2018-07-21T07:18:34.761Z,21.33
2018-07-21T07:21:03.292Z,29.17
2018-07-21T07:23:31.705Z,26.83
2018-07-21T07:26:00.148Z,22.20
2018-07-21T07:28:28.562Z,28.43
2018-07-21T07:30:57.023Z,26.23
2018-07-21T07:33:25.444Z,18.77
2018-07-21T07:35:54.542Z,23.63
2018-07-21T07:38:22.948Z,19.93
2018-07-21T07:40:51.690Z,21.90
2018-07-21T07:43:20.114Z,22.33
2018-07-21T07:45:48.601Z,28.77
2018-07-21T07:48:17.012Z,34.17
2018-07-21T07:50:45.484Z,24.83
2018-07-21T07:53:14.706Z,23.23
2018-07-21T07:55:43.131Z,26.80
2018-07-21T07:58:11.524Z,19.87
2018-07-21T08:00:39.953Z,25.43
2018-07-21T08:03:08.406Z,17.97
2018-07-21T08:05:36.775Z,17.83
2018-07-21T08:08:05.273Z,22.43
2018-07-21T08:10:33.729Z,23.07
2018-07-21T08:13:02.263Z,27.97
2018-07-21T08:15:30.669Z,31.27
2018-07-21T08:17:59.216Z,30.73
2018-07-21T08:20:27.620Z,25.03
2018-07-21T08:22:56.108Z,26.07
2018-07-21T08:25:24.510Z,20.00
2018-07-21T08:27:54.030Z,25.50
2018-07-21T08:30:22.475Z,27.50
2018-07-21T08:32:50.903Z,28.20
2018-07-21T08:35:19.324Z,30.57
2018-07-21T08:37:47.716Z,29.00
2018-07-21T08:40:16.128Z,24.63
2018-07-21T08:42:44.591Z,27.43
2018-07-21T08:45:13.043Z,19.73
2018-07-21T08:47:41.480Z,25.83
2018-07-21T08:50:09.900Z,23.70
2018-07-21T08:52:38.366Z,17.90
2018-07-21T08:55:06.799Z,24.40
2018-07-21T08:57:35.280Z,20.83
2018-07-21T09:00:04.412Z,23.67
2018-07-21T09:02:32.816Z,19.73
2018-07-21T09:05:01.297Z,20.50
2018-07-21T09:07:29.728Z,22.83
2018-07-21T09:09:58.349Z,19.83
2018-07-21T09:12:26.798Z,17.00
2018-07-21T09:14:55.575Z,14.50
2018-07-21T09:17:24.016Z,15.57
2018-07-21T09:19:52.933Z,21.07
2018-07-21T09:22:21.310Z,21.67
2018-07-21T09:24:50.108Z,18.90
2018-07-21T09:27:18.588Z,12.13
2018-07-21T09:29:47.071Z,12.70
2018-07-21T09:32:15.539Z,12.60
2018-07-21T09:34:44.544Z,13.63
2018-07-21T09:37:13.342Z,16.00
2018-07-21T09:39:41.715Z,15.80
2018-07-21T09:42:10.132Z,12.53
2018-07-21T09:44:38.528Z,13.97
2018-07-21T09:47:07.002Z,13.10
2018-07-21T09:49:35.907Z,12.77
2018-07-21T09:52:04.805Z,10.13
2018-07-21T09:54:34.052Z,12.00
2018-07-21T09:57:02.515Z,10.93
2018-07-21T09:59:30.922Z,9.43
2018-07-21T10:01:59.404Z,8.97
2018-07-21T10:04:27.840Z,12.70
2018-07-21T10:06:56.231Z,12.70
2018-07-21T10:09:24.713Z,14.80
2018-07-21T10:11:53.130Z,10.20
2018-07-21T10:14:21.624Z,9.97
2018-07-21T10:16:50.102Z,12.90
2018-07-21T10:19:18.576Z,9.93
2018-07-21T10:21:47.106Z,11.27
2018-07-21T10:24:20.657Z,9.20
2018-07-21T10:26:54.382Z,9.77
2018-07-21T10:29:22.860Z,10.67
2018-07-21T10:31:51.292Z,6.80
2018-07-21T10:34:19.715Z,11.53
2018-07-21T10:36:48.163Z,7.60
2018-07-21T10:39:16.568Z,14.90
2018-07-21T10:41:45.059Z,9.73
2018-07-21T10:44:13.481Z,10.00
2018-07-21T10:46:42.019Z,11.50
2018-07-21T10:49:10.404Z,10.00
2018-07-21T10:51:38.895Z,19.47
2018-07-21T10:54:07.613Z,9.50
2018-07-21T10:56:36.095Z,9.93
2018-07-21T10:59:04.608Z,10.83
2018-07-21T11:01:33.024Z,10.50
2018-07-21T11:04:01.460Z,15.50
2018-07-21T11:06:29.932Z,12.00
2018-07-21T11:08:58.332Z,10.20
2018-07-21T11:11:26.741Z,12.50
2018-07-21T11:13:55.115Z,8.80
2018-07-21T11:16:23.582Z,8.43
2018-07-21T11:18:51.991Z,8.67
2018-07-21T11:21:20.372Z,9.43
2018-07-21T11:23:48.768Z,9.90
2018-07-21T11:26:17.220Z,9.30
2018-07-21T11:28:45.627Z,13.20
2018-07-21T11:31:14.062Z,10.53
2018-07-21T11:33:42.421Z,12.30
2018-07-21T11:36:11.032Z,10.47
2018-07-21T11:38:39.176Z,9.93
2018-07-21T11:41:07.612Z,9.03
2018-07-21T11:43:36.475Z,7.17
2018-07-21T11:46:04.986Z,11.40
2018-07-21T11:48:33.439Z,9.70
2018-07-21T11:51:02.791Z,15.70
2018-07-21T11:53:31.233Z,13.23
2018-07-21T11:55:59.664Z,10.00
2018-07-21T11:58:28.074Z,9.87
2018-07-21T12:00:56.495Z,9.40
2018-07-21T12:03:24.963Z,15.37
2018-07-21T12:05:53.397Z,13.67
2018-07-21T12:08:21.789Z,12.37
2018-07-21T12:10:50.212Z,10.10
2018-07-21T12:13:18.668Z,10.10
2018-07-21T12:15:47.129Z,10.40
2018-07-21T12:18:15.567Z,13.13
2018-07-21T12:20:44.045Z,9.03
2018-07-21T12:23:12.464Z,10.63
2018-07-21T12:25:40.904Z,10.20
2018-07-21T12:28:09.379Z,11.13
2018-07-21T12:30:37.884Z,10.97
2018-07-21T12:33:06.605Z,12.87
2018-07-21T12:35:35.037Z,10.73
2018-07-21T12:38:03.541Z,10.30
2018-07-21T12:40:32.014Z,10.83
2018-07-21T12:43:00.416Z,11.33
2018-07-21T12:45:28.839Z,7.20
2018-07-21T12:47:57.240Z,11.30
2018-07-21T12:50:25.643Z,8.07
2018-07-21T12:52:54.077Z,16.80
2018-07-21T12:55:22.544Z,10.73
2018-07-21T12:57:50.992Z,8.60
2018-07-21T13:00:19.438Z,9.90
2018-07-21T13:02:47.820Z,9.73
2018-07-21T13:05:16.392Z,8.57
2018-07-21T13:07:44.852Z,8.73
2018-07-21T13:10:13.309Z,8.73
2018-07-21T13:12:41.892Z,10.50
2018-07-21T13:15:10.340Z,10.13
2018-07-21T13:17:38.867Z,9.60
2018-07-21T13:20:07.472Z,11.03
2018-07-21T13:22:35.932Z,9.30
2018-07-21T13:25:04.512Z,8.90
2018-07-21T13:27:32.932Z,7.73
2018-07-21T13:30:01.337Z,10.80
2018-07-21T13:32:29.796Z,9.70
2018-07-21T13:34:58.540Z,11.37
2018-07-21T13:37:28.052Z,13.57
2018-07-21T13:39:56.397Z,7.43
2018-07-21T13:42:25.128Z,10.37
2018-07-21T13:44:53.592Z,9.40
2018-07-21T13:47:21.985Z,8.40
2018-07-21T13:49:50.404Z,9.90
2018-07-21T13:52:18.889Z,10.17
2018-07-21T13:54:48.320Z,8.27
2018-07-21T13:57:16.722Z,8.87
2018-07-21T13:59:45.111Z,6.40
2018-07-21T14:02:13.586Z,14.57
2018-07-21T14:04:41.998Z,8.47
2018-07-21T14:07:10.476Z,9.50
2018-07-21T14:09:38.928Z,13.70
2018-07-21T14:12:07.603Z,9.03
2018-07-21T14:14:36.180Z,11.53
2018-07-21T14:17:04.641Z,9.07
2018-07-21T14:19:33.126Z,7.70
2018-07-21T14:22:01.566Z,8.70
2018-07-21T14:24:30.010Z,8.50
2018-07-21T14:26:58.456Z,10.37
2018-07-21T14:29:26.892Z,11.10
2018-07-21T14:31:55.534Z,10.27
2018-07-21T14:34:23.935Z,15.73
2018-07-21T14:36:52.363Z,12.17
2018-07-21T14:39:20.729Z,13.57
2018-07-21T14:41:49.280Z,9.17
2018-07-21T14:44:17.672Z,9.23
2018-07-21T14:46:46.121Z,10.63
2018-07-21T14:49:14.513Z,8.00
2018-07-21T14:51:42.973Z,7.57
2018-07-21T14:54:11.469Z,7.40
2018-07-21T14:56:39.883Z,13.93
2018-07-21T14:59:08.391Z,8.83
2018-07-21T15:01:36.865Z,8.73
2018-07-21T15:04:05.300Z,9.30
2018-07-21T15:06:33.946Z,8.03
2018-07-21T15:09:02.356Z,8.63
2018-07-21T15:11:30.747Z,7.50
2018-07-21T15:13:59.228Z,7.23
2018-07-21T15:16:29.097Z,13.70
2018-07-21T15:18:57.600Z,14.97
2018-07-21T15:21:26.092Z,9.03
2018-07-21T15:23:54.533Z,13.23
2018-07-21T15:26:23.142Z,7.63
2018-07-21T15:28:51.610Z,8.50
2018-07-21T15:31:20.051Z,9.50
2018-07-21T15:33:48.488Z,11.97
2018-07-21T15:36:16.870Z,7.40
2018-07-21T15:38:45.380Z,7.67
2018-07-21T15:41:13.904Z,8.80
2018-07-21T15:43:42.294Z,7.40
2018-07-21T15:46:10.845Z,10.27
2018-07-21T15:48:39.298Z,7.30
2018-07-21T15:51:08.064Z,9.37
2018-07-21T15:53:36.491Z,12.00
2018-07-21T15:56:04.957Z,8.30
2018-07-21T15:58:33.433Z,8.20
2018-07-21T16:01:01.827Z,7.50
2018-07-21T16:03:30.382Z,9.13
2018-07-21T16:05:58.837Z,7.57
2018-07-21T16:08:27.244Z,11.77
2018-07-21T16:10:55.624Z,8.00
2018-07-21T16:13:24.033Z,6.90
2018-07-21T16:15:52.479Z,9.53
2018-07-21T16:18:20.948Z,8.60
2018-07-21T16:20:49.376Z,10.83
2018-07-21T16:23:17.803Z,7.37
2018-07-21T16:25:46.329Z,8.80
2018-07-21T16:28:14.886Z,8.70
2018-07-21T16:30:43.316Z,6.53
2018-07-21T16:33:11.740Z,7.07
2018-07-21T16:35:40.191Z,13.17
2018-07-21T16:38:08.590Z,11.27
2018-07-21T16:40:36.977Z,10.47
2018-07-21T16:43:05.375Z,8.30
2018-07-21T16:45:33.871Z,10.80
2018-07-21T16:48:02.294Z,11.10
2018-07-21T16:50:30.696Z,11.13
2018-07-21T16:53:00.894Z,10.90
2018-07-21T16:55:29.337Z,10.07
2018-07-21T16:57:57.743Z,35.77
2018-07-21T17:00:26.146Z,17.43
2018-07-21T17:02:54.574Z,11.07
2018-07-21T17:05:22.974Z,8.47
2018-07-21T17:07:51.451Z,7.97
2018-07-21T17:10:19.866Z,9.03
2018-07-21T17:12:48.319Z,9.03
2018-07-21T17:15:17.499Z,7.10
2018-07-21T17:17:45.858Z,8.40
2018-07-21T17:20:14.364Z,21.60
2018-07-21T17:22:42.793Z,12.90
2018-07-21T17:25:11.188Z,19.60
2018-07-21T17:27:39.616Z,6.90
2018-07-21T17:30:08.099Z,10.40
2018-07-21T17:32:36.522Z,9.83
2018-07-21T17:35:04.981Z,9.80
2018-07-21T17:37:33.427Z,11.47
2018-07-21T17:40:01.897Z,12.87
2018-07-21T17:42:30.322Z,7.90
2018-07-21T17:44:58.748Z,11.83
2018-07-21T17:47:27.147Z,11.40
2018-07-21T17:49:55.603Z,11.57
2018-07-21T17:52:24.107Z,7.30
2018-07-21T17:54:52.572Z,11.07
2018-07-21T17:57:20.957Z,6.20
2018-07-21T17:59:49.368Z,5.27
2018-07-21T18:02:17.871Z,6.20
2018-07-21T18:04:46.266Z,8.27
2018-07-21T18:07:14.693Z,8.13
2018-07-21T18:09:43.202Z,8.57
2018-07-21T18:12:11.692Z,7.10
2018-07-21T18:14:40.131Z,7.90
2018-07-21T18:17:08.632Z,10.20
2018-07-21T18:19:37.241Z,7.60
2018-07-21T18:22:06.038Z,8.37
2018-07-21T18:24:34.992Z,10.10
2018-07-21T18:27:03.503Z,14.73
2018-07-21T18:29:31.912Z,18.13
2018-07-21T18:32:00.351Z,10.93
2018-07-21T18:34:28.780Z,13.50
2018-07-21T18:36:57.204Z,14.37
2018-07-21T18:39:25.620Z,10.30
2018-07-21T18:41:54.621Z,9.73
2018-07-21T18:44:23.188Z,13.60
2018-07-21T18:46:51.613Z,13.90
2018-07-21T18:49:20.463Z,19.63
2018-07-21T18:51:48.885Z,25.37
2018-07-21T18:54:18.115Z,17.73
2018-07-21T18:56:46.616Z,13.63
2018-07-21T18:59:15.613Z,13.00
2018-07-21T19:01:44.055Z,18.27
2018-07-21T19:04:12.479Z,17.23
2018-07-21T19:06:40.906Z,11.63
2018-07-21T19:09:10.024Z,16.20
2018-07-21T19:11:38.803Z,13.90
2018-07-21T19:14:07.310Z,11.77
2018-07-21T19:16:44.046Z,12.10
2018-07-21T19:19:12.505Z,17.17
2018-07-21T19:21:42.081Z,9.10
2018-07-21T19:24:10.973Z,7.60
2018-07-21T19:26:45.580Z,7.40
2018-07-21T19:29:14.148Z,9.13
2018-07-21T19:31:48.062Z,14.27
2018-07-21T19:34:16.810Z,14.70
2018-07-21T19:36:45.553Z,12.70
2018-07-21T19:39:14.068Z,11.57
2018-07-21T19:41:47.972Z,18.17
2018-07-21T19:44:17.068Z,17.10
2018-07-21T19:46:45.463Z,15.03
2018-07-21T19:49:13.888Z,12.43
2018-07-21T19:51:42.315Z,13.27
2018-07-21T19:54:10.798Z,12.50
2018-07-21T19:56:39.271Z,14.53
2018-07-21T19:59:07.620Z,13.93
2018-07-21T20:01:35.976Z,13.53
2018-07-21T20:04:04.425Z,11.77
2018-07-21T20:06:32.783Z,14.63
2018-07-21T20:09:01.244Z,11.43
2018-07-21T20:11:29.722Z,14.13
2018-07-21T20:13:58.185Z,18.60
2018-07-21T20:16:26.591Z,11.77
2018-07-21T20:18:55.058Z,11.53
2018-07-21T20:21:23.509Z,9.63
2018-07-21T20:23:51.949Z,10.23
2018-07-21T20:26:20.533Z,12.40
2018-07-21T20:28:48.934Z,9.47
2018-07-21T20:31:17.373Z,11.33
2018-07-21T20:33:45.807Z,11.83
2018-07-21T20:36:14.264Z,11.33
2018-07-21T20:38:42.656Z,9.93
2018-07-21T20:41:11.089Z,10.53
2018-07-21T20:43:39.523Z,19.63
2018-07-21T20:46:07.912Z,12.20
2018-07-21T20:48:36.425Z,11.13
2018-07-21T20:51:04.910Z,10.80
2018-07-21T20:53:33.363Z,12.37
2018-07-21T20:56:01.842Z,9.87
2018-07-21T20:58:30.293Z,12.90
2018-07-21T21:00:58.695Z,10.63
2018-07-21T21:03:27.151Z,11.53
2018-07-21T21:05:55.593Z,10.63
2018-07-21T21:08:24.054Z,9.03
2018-07-21T21:10:52.545Z,11.30
2018-07-21T21:13:21.051Z,13.00
2018-07-21T21:15:49.558Z,11.17
2018-07-21T21:18:18.155Z,15.03
2018-07-21T21:20:46.593Z,11.30
2018-07-21T21:23:15.040Z,23.03
2018-07-21T21:25:43.505Z,11.90
2018-07-21T21:28:11.961Z,11.47
2018-07-21T21:30:40.436Z,11.30
2018-07-21T21:33:08.850Z,17.77
2018-07-21T21:35:37.274Z,13.20
2018-07-21T21:38:05.781Z,12.90
2018-07-21T21:40:34.240Z,11.67
2018-07-21T21:43:02.703Z,15.20
2018-07-21T21:45:31.152Z,13.03
2018-07-21T21:47:59.638Z,15.50
2018-07-21T21:50:28.599Z,13.07
2018-07-21T21:52:57.301Z,13.73
2018-07-21T21:55:25.831Z,16.13
2018-07-21T21:57:54.256Z,14.40
2018-07-21T22:00:22.802Z,14.13
2018-07-21T22:02:51.212Z,13.80
2018-07-21T22:05:19.633Z,11.77
2018-07-21T22:07:48.071Z,15.00
2018-07-21T22:10:17.444Z,15.63
2018-07-21T22:12:45.848Z,14.13
2018-07-21T22:15:18.280Z,41.93
2018-07-21T22:17:46.724Z,17.67
2018-07-21T22:20:15.115Z,16.90
2018-07-21T22:22:43.948Z,18.03
2018-07-21T22:25:13.245Z,16.43
2018-07-21T22:27:41.667Z,19.40
2018-07-21T22:30:11.165Z,17.30
2018-07-21T22:32:39.574Z,25.70
2018-07-21T22:35:08.047Z,20.93
2018-07-21T22:37:36.511Z,22.93
2018-07-21T22:40:04.972Z,17.20
2018-07-21T22:42:33.397Z,16.00
2018-07-21T22:45:01.861Z,17.90
2018-07-21T22:47:30.248Z,16.63
2018-07-21T22:49:58.615Z,23.43
2018-07-21T22:52:27.016Z,16.97
2018-07-21T22:54:55.452Z,16.23
2018-07-21T22:57:23.908Z,16.83
2018-07-21T22:59:52.299Z,18.90
2018-07-21T23:02:20.767Z,17.93
2018-07-21T23:04:49.204Z,19.80
2018-07-21T23:07:17.621Z,16.57
2018-07-21T23:09:46.127Z,23.43
2018-07-21T23:12:14.559Z,21.90
2018-07-21T23:14:43.012Z,17.30
2018-07-21T23:17:11.504Z,16.93
2018-07-21T23:19:39.916Z,16.77
2018-07-21T23:22:08.491Z,18.57
2018-07-21T23:24:37.413Z,18.97
2018-07-21T23:27:05.840Z,18.50
2018-07-21T23:29:34.260Z,20.07
2018-07-21T23:32:02.717Z,19.53
2018-07-21T23:34:31.142Z,16.87
2018-07-21T23:36:59.612Z,18.80
2018-07-21T23:39:28.041Z,17.53
2018-07-21T23:41:57.052Z,21.00
2018-07-21T23:44:25.521Z,22.00
2018-07-21T23:46:53.945Z,19.37
2018-07-21T23:49:22.321Z,18.73
2018-07-21T23:51:50.785Z,19.17
2018-07-21T23:54:19.185Z,23.03
2018-07-21T23:56:47.591Z,19.20
2018-07-21T23:59:16.020Z,24.37
